This is the latest recevied weather packets stored in our database for station/object G6FJI-13. If no packets are shown the sender has not sent any weather packets the latest 10 day(s).
| Time | Temp. | Humidity | Pressure | Rain* | Wind** | Luminosity | Snow |
|---|---|---|---|---|---|---|---|
| 1777497087 | 11.11° C | 60% | 1026.8 hPa | 0 mm | - | 0 W/m² | - |
| 1777496531 | 11.11° C | 59% | 1026.6 hPa | 0 mm | - | 0 W/m² | - |
| 1777495332 | 11.67° C | 56% | 1026.7 hPa | 0 mm | - | 0 W/m² | - |
| 1777488692 | 13.89° C | 49% | 1025.8 hPa | 0 mm | - | 11 W/m² | - |
| 1777482141 | 17.22° C | 35% | 1025.2 hPa | 0 mm | - | 41 W/m² | - |
| 1777481498 | 17.22° C | 36% | 1025 hPa | 0 mm | - | 41 W/m² | - |
| 1777474885 | 18.89° C | 32% | 1025.8 hPa | 0 mm | - | 60 W/m² | - |
| 1777474242 | 18.89° C | 32% | 1025.7 hPa | 0 mm | - | 62 W/m² | - |
| 1777471288 | 19.44° C | 31% | 1026 hPa | 0 mm | - | 622 W/m² | - |
| 1777466431 | 19.44° C | 34% | 1026.5 hPa | 0 mm | - | 678 W/m² | - |
| 1777460936 | 18.33° C | 34% | 1026.9 hPa | 0 mm | - | 596 W/m² | - |
| 1777456750 | 17.22° C | 44% | 1027.1 hPa | 0 mm | - | 483 W/m² | - |
| 1777453629 | 14.44° C | 60% | 1027.2 hPa | 0 mm | - | 87 W/m² | - |
| 1777451230 | 12.22° C | 66% | 1027.3 hPa | 0 mm | - | 195 W/m² | - |
| 1777450618 | 11.67° C | 67% | 1027.5 hPa | 0 mm | - | 249 W/m² | - |
| 1777448832 | 10.56° C | 72% | 1027.6 hPa | 0 mm | - | 32 W/m² | - |
| 1777448200 | 10.56° C | 73% | 1027.7 hPa | 0 mm | - | 31 W/m² | - |
| 1777447021 | 10° C | 76% | 1027.9 hPa | 0 mm | - | 27 W/m² | - |
| 1777437287 | 6.11° C | 89% | 1027.2 hPa | 0 mm | - | 1 W/m² | - |
| 1777436089 | 6.11° C | 89% | 1027.2 hPa | 0 mm | - | 0 W/m² | - |
| 1777434228 | 6.11° C | 87% | 1027.1 hPa | 0 mm | - | 0 W/m² | - |
| 1777433660 | 6.11° C | 87% | 1027.3 hPa | 0 mm | - | 0 W/m² | - |
| 1777433029 | 6.67° C | 87% | 1027.4 hPa | 0 mm | - | 0 W/m² | - |
| 1777428743 | 6.67° C | 85% | 1027.7 hPa | 0 mm | - | 0 W/m² | - |
| 1777425789 | 6.67° C | 82% | 1027.8 hPa | 0 mm | - | 0 W/m² | - |
* Rain latest hour (hover to see other rain measurements)
** Current wind speed in m/s (hover to see current wind gust speed)